Time;durP1;ratioP1;P1;durP2;ratioP2;P2;SDS_P1;SDS_P2;PMS_P1;PMS_P2;Temp;Humidity;BMP_temperature;BMP_pressure;BME280_temperature;BME280_humidity;BME280_pressure;Samples;Min_cycle;Max_cycle;Signal;HPM_P1;HPM_P2
2023/08/17 00:01:57;;;;;;;2.30;2.10;;;26.10;79.10;;;;;;5093105;28;20215;-70
2023/08/17 00:04:24;;;;;;;1.97;1.73;;;26.10;79.10;;;;;;5092719;28;20239;-70
2023/08/17 00:06:51;;;;;;;2.00;1.90;;;26.10;79.40;;;;;;5092751;28;20213;-70
2023/08/17 00:09:18;;;;;;;3.27;2.30;;;26.10;79.50;;;;;;5092998;28;20197;-71
2023/08/17 00:11:45;;;;;;;4.17;2.30;;;26.00;79.50;;;;;;5092902;28;20572;-71
2023/08/17 00:14:13;;;;;;;2.80;2.20;;;25.90;79.80;;;;;;5093016;28;20244;-71
2023/08/17 00:16:41;;;;;;;2.60;2.03;;;25.80;80.20;;;;;;5093828;28;20585;-71
2023/08/17 00:19:08;;;;;;;3.33;2.23;;;25.70;80.40;;;;;;5092507;28;20254;-71
2023/08/17 00:21:35;;;;;;;2.40;2.20;;;25.70;80.60;;;;;;5096808;28;20212;-71
2023/08/17 00:24:02;;;;;;;3.00;2.10;;;25.60;80.70;;;;;;5106411;28;20232;-71
2023/08/17 00:26:29;;;;;;;3.70;2.20;;;25.70;80.90;;;;;;5095773;28;20224;-70
2023/08/17 00:28:56;;;;;;;3.57;2.30;;;25.60;80.90;;;;;;5100929;28;20295;-70
2023/08/17 00:31:24;;;;;;;3.17;1.77;;;25.60;80.80;;;;;;5107571;28;20211;-71
2023/08/17 00:33:51;;;;;;;3.47;2.10;;;25.60;81.10;;;;;;5100147;28;20232;-71
2023/08/17 00:36:18;;;;;;;2.37;2.00;;;25.50;81.10;;;;;;5092001;28;20223;-70
2023/08/17 00:38:45;;;;;;;4.87;2.03;;;25.50;81.20;;;;;;5092882;28;20211;-71
2023/08/17 00:41:12;;;;;;;3.57;2.70;;;25.50;81.50;;;;;;5092212;28;20220;-71
2023/08/17 00:43:39;;;;;;;3.23;2.20;;;25.40;81.50;;;;;;5080041;28;20229;-71
2023/08/17 00:46:06;;;;;;;2.90;2.27;;;25.30;81.80;;;;;;5071799;28;20221;-71
2023/08/17 00:48:34;;;;;;;3.27;2.40;;;25.30;81.90;;;;;;5071261;28;20228;-71
2023/08/17 00:51:03;;;;;;;3.43;2.53;;;25.30;82.00;;;;;;5072026;28;20213;-71
2023/08/17 00:53:32;;;;;;;3.90;2.30;;;25.30;82.30;;;;;;5072515;28;20204;-70
2023/08/17 00:56:01;;;;;;;2.53;2.30;;;25.30;82.20;;;;;;5071767;28;20588;-70
2023/08/17 00:58:29;;;;;;;2.37;2.17;;;25.20;82.10;;;;;;5071948;28;20211;-71
2023/08/17 01:00:56;;;;;;;2.20;2.00;;;25.20;82.80;;;;;;5071783;28;20229;-71
2023/08/17 01:03:25;;;;;;;2.33;2.00;;;25.30;81.90;;;;;;5071506;28;20201;-71
2023/08/17 01:05:53;;;;;;;3.37;2.70;;;25.20;81.90;;;;;;5073522;28;20235;-71
2023/08/17 01:08:20;;;;;;;2.47;2.00;;;25.20;82.00;;;;;;5092155;28;20208;-71
2023/08/17 01:10:56;;;;;;;4.63;2.10;;;25.20;82.00;;;;;;5092070;28;20204;-70
2023/08/17 01:13:32;;;;;;;2.73;2.20;;;25.20;82.30;;;;;;5091729;28;20228;-71
2023/08/17 01:16:03;;;;;;;2.40;2.03;;;25.10;82.20;;;;;;5091391;28;20235;-71
2023/08/17 01:18:32;;;;;;;3.63;2.10;;;25.20;82.20;;;;;;5090999;28;20193;-71
2023/08/17 01:21:02;;;;;;;2.20;2.00;;;25.10;82.00;;;;;;5071277;28;20305;-71
2023/08/17 01:23:31;;;;;;;3.30;2.13;;;25.00;82.10;;;;;;5071789;28;20565;-71
2023/08/17 01:25:58;;;;;;;2.80;2.13;;;25.00;82.20;;;;;;5071619;28;20236;-71
2023/08/17 01:28:25;;;;;;;2.33;2.00;;;25.00;82.30;;;;;;5072115;28;20286;-70
2023/08/17 01:30:58;;;;;;;3.03;2.23;;;25.00;82.50;;;;;;5071155;28;20209;-70
2023/08/17 01:33:30;;;;;;;2.47;2.10;;;24.90;82.50;;;;;;5079988;28;20215;-71
2023/08/17 01:36:06;;;;;;;2.27;2.07;;;24.90;82.70;;;;;;5091841;28;20208;-71
2023/08/17 01:38:36;;;;;;;2.50;2.30;;;24.90;82.80;;;;;;5080003;28;20707;-70
2023/08/17 01:41:04;;;;;;;4.37;1.97;;;24.90;82.80;;;;;;5071533;28;20209;-70
2023/08/17 01:43:32;;;;;;;3.13;2.50;;;24.80;82.90;;;;;;5082939;28;20639;-70
2023/08/17 01:45:59;;;;;;;2.50;2.00;;;24.80;82.70;;;;;;5090977;28;20658;-71
2023/08/17 01:48:26;;;;;;;3.20;1.97;;;24.80;82.60;;;;;;5080805;28;20207;-71
2023/08/17 01:50:54;;;;;;;6.30;2.27;;;24.80;82.50;;;;;;5087311;28;20200;-71
2023/08/17 01:53:21;;;;;;;3.40;2.10;;;24.80;82.50;;;;;;5091257;28;20660;-71
2023/08/17 01:55:49;;;;;;;2.53;1.97;;;24.80;82.30;;;;;;5091298;28;20240;-71
2023/08/17 01:58:16;;;;;;;3.30;2.40;;;24.80;82.50;;;;;;5091361;28;20200;-71
2023/08/17 02:00:43;;;;;;;2.33;2.10;;;24.80;82.50;;;;;;5093018;28;20208;-70
2023/08/17 02:03:10;;;;;;;3.03;2.23;;;24.80;82.50;;;;;;5090745;28;20196;-71
2023/08/17 02:05:36;;;;;;;5.00;2.10;;;24.80;82.60;;;;;;5095488;28;20208;-70
2023/08/17 02:08:04;;;;;;;3.83;2.03;;;24.80;82.60;;;;;;5088817;28;20232;-70
2023/08/17 02:10:30;;;;;;;2.37;2.17;;;24.80;82.70;;;;;;5075017;28;20582;-71
2023/08/17 02:12:59;;;;;;;4.17;2.10;;;24.70;82.60;;;;;;5075318;28;20212;-71
2023/08/17 02:15:25;;;;;;;2.10;1.90;;;24.70;82.70;;;;;;5074738;28;20589;-71
2023/08/17 02:17:52;;;;;;;3.93;2.00;;;24.70;82.70;;;;;;5075224;28;20204;-71
2023/08/17 02:20:19;;;;;;;1.97;1.83;;;24.70;82.60;;;;;;5083245;28;20204;-71
2023/08/17 02:22:46;;;;;;;4.33;2.23;;;24.70;82.60;;;;;;5095295;28;20207;-71
2023/08/17 02:25:12;;;;;;;2.87;2.07;;;24.60;82.60;;;;;;5095031;28;20212;-71
2023/08/17 02:27:39;;;;;;;2.73;2.17;;;24.60;82.70;;;;;;5094490;28;20229;-71
2023/08/17 02:30:09;;;;;;;2.93;2.30;;;24.50;82.80;;;;;;5094835;28;20215;-71
2023/08/17 02:32:35;;;;;;;2.30;2.10;;;24.50;82.90;;;;;;5094976;28;20200;-71
2023/08/17 02:35:02;;;;;;;4.30;2.50;;;24.50;82.90;;;;;;5094884;28;20220;-71
2023/08/17 02:37:29;;;;;;;2.93;2.17;;;24.50;82.90;;;;;;5094692;28;20211;-70
2023/08/17 02:39:56;;;;;;;2.30;2.10;;;24.50;82.90;;;;;;5094943;28;20228;-71
2023/08/17 02:42:23;;;;;;;4.10;2.37;;;24.50;82.90;;;;;;5092189;28;20238;-71
2023/08/17 02:44:50;;;;;;;2.70;1.90;;;24.40;82.80;;;;;;5074018;28;20207;-70
2023/08/17 02:47:18;;;;;;;2.23;1.90;;;24.40;82.80;;;;;;5092273;28;20238;-71
2023/08/17 02:49:45;;;;;;;4.17;2.10;;;24.40;82.80;;;;;;5094270;28;20203;-71
2023/08/17 02:52:12;;;;;;;2.10;1.90;;;24.40;83.00;;;;;;5094548;28;20212;-71
2023/08/17 02:54:39;;;;;;;2.73;1.77;;;24.40;83.00;;;;;;5094631;28;20199;-72
2023/08/17 02:57:06;;;;;;;2.60;2.10;;;24.40;82.90;;;;;;5093659;28;20549;-71
2023/08/17 02:59:32;;;;;;;1.87;1.77;;;24.40;82.80;;;;;;5094284;28;20234;-71
2023/08/17 03:01:59;;;;;;;4.47;2.00;;;24.40;82.80;;;;;;5093923;28;20208;-70
2023/08/17 03:04:27;;;;;;;2.20;2.00;;;24.30;82.80;;;;;;5094273;28;20591;-71
2023/08/17 03:06:54;;;;;;;2.40;2.20;;;24.30;83.00;;;;;;5095712;28;20208;-71
2023/08/17 03:09:21;;;;;;;3.63;2.07;;;24.30;83.70;;;;;;5094290;28;20213;-71
2023/08/17 03:11:47;;;;;;;3.47;1.93;;;24.30;83.00;;;;;;5093250;28;20229;-71
2023/08/17 03:14:14;;;;;;;3.13;2.20;;;24.30;83.10;;;;;;5093381;28;20211;-69
2023/08/17 03:16:41;;;;;;;2.80;2.03;;;24.30;83.10;;;;;;5093554;28;20216;-71
2023/08/17 03:19:10;;;;;;;4.47;2.33;;;24.20;83.10;;;;;;5094097;28;20204;-71
2023/08/17 03:21:39;;;;;;;2.63;2.20;;;24.20;83.20;;;;;;5075544;28;20233;-71
2023/08/17 03:24:07;;;;;;;3.07;2.20;;;24.20;83.30;;;;;;5073804;28;20205;-71
2023/08/17 03:26:33;;;;;;;2.50;2.30;;;24.20;83.40;;;;;;5073613;28;20205;-71
2023/08/17 03:29:00;;;;;;;2.43;2.10;;;24.20;83.50;;;;;;5073293;28;20229;-70
2023/08/17 03:31:27;;;;;;;2.33;2.13;;;24.10;83.20;;;;;;5073367;28;20197;-71
2023/08/17 03:33:55;;;;;;;3.03;2.40;;;24.20;83.30;;;;;;5073814;28;20248;-70
2023/08/17 03:36:22;;;;;;;2.53;2.30;;;24.20;83.30;;;;;;5073281;28;20383;-70
2023/08/17 03:38:50;;;;;;;1.90;1.77;;;24.10;83.20;;;;;;5076001;28;20212;-71
2023/08/17 03:41:16;;;;;;;3.27;2.53;;;24.10;83.30;;;;;;5073256;28;20209;-71
2023/08/17 03:43:43;;;;;;;4.90;2.13;;;24.00;83.50;;;;;;5083361;28;20700;-71
2023/08/17 03:46:10;;;;;;;2.00;1.80;;;24.10;83.80;;;;;;5088065;28;20207;-71
2023/08/17 03:48:37;;;;;;;2.10;1.90;;;24.00;83.70;;;;;;5098325;28;20232;-71
2023/08/17 03:51:04;;;;;;;2.83;2.00;;;24.00;83.70;;;;;;5075255;28;20220;-70
2023/08/17 03:53:31;;;;;;;2.73;2.03;;;23.90;83.50;;;;;;5089490;28;20230;-71
2023/08/17 03:55:59;;;;;;;2.77;1.97;;;24.00;83.50;;;;;;5091530;28;20219;-71
2023/08/17 03:58:26;;;;;;;4.30;2.27;;;23.90;83.30;;;;;;5077499;28;20201;-71
2023/08/17 04:00:54;;;;;;;3.53;2.10;;;23.90;83.20;;;;;;5072530;28;20235;-71
2023/08/17 04:03:21;;;;;;;5.10;2.43;;;23.90;83.20;;;;;;5072987;28;20239;-71
2023/08/17 04:05:47;;;;;;;2.60;2.40;;;23.80;83.30;;;;;;5072662;28;20225;-71
2023/08/17 04:08:14;;;;;;;4.43;2.10;;;23.80;83.40;;;;;;5072749;28;20213;-71
2023/08/17 04:10:41;;;;;;;3.27;2.40;;;23.80;83.40;;;;;;5072630;28;20205;-71
2023/08/17 04:13:09;;;;;;;2.40;2.20;;;23.80;83.60;;;;;;5072615;28;20239;-71
2023/08/17 04:15:36;;;;;;;2.63;2.30;;;23.70;83.60;;;;;;5072540;28;20232;-71
2023/08/17 04:18:03;;;;;;;4.33;2.33;;;23.70;83.70;;;;;;5079043;28;20559;-71
2023/08/17 04:20:30;;;;;;;3.57;2.30;;;23.70;83.70;;;;;;5083438;28;20687;-71
2023/08/17 04:22:57;;;;;;;5.03;2.73;;;23.70;83.80;;;;;;5072166;28;20228;-71
2023/08/17 04:25:24;;;;;;;5.30;2.63;;;23.70;84.20;;;;;;5072039;28;20704;-71
2023/08/17 04:27:50;;;;;;;6.33;2.87;;;23.60;84.10;;;;;;5076194;28;20220;-71
2023/08/17 04:30:19;;;;;;;5.30;2.73;;;23.60;84.30;;;;;;5092577;28;20215;-71
2023/08/17 04:32:50;;;;;;;3.00;2.70;;;23.60;84.50;;;;;;5072292;28;20213;-71
2023/08/17 04:35:17;;;;;;;3.00;2.70;;;23.60;84.80;;;;;;5072034;28;20203;-71
2023/08/17 04:37:44;;;;;;;5.30;3.03;;;23.50;84.90;;;;;;5072010;28;20558;-71
2023/08/17 04:40:11;;;;;;;3.83;2.73;;;23.60;85.00;;;;;;5071775;28;20213;-71
2023/08/17 04:42:37;;;;;;;2.63;2.43;;;23.60;85.20;;;;;;5071788;28;20227;-71
2023/08/17 04:45:05;;;;;;;6.40;3.30;;;23.60;85.30;;;;;;5071545;28;20197;-71
2023/08/17 04:47:33;;;;;;;4.67;3.23;;;23.60;85.70;;;;;;5071789;28;20235;-71
2023/08/17 04:50:00;;;;;;;4.07;3.13;;;23.60;85.80;;;;;;5071826;28;20232;-71
2023/08/17 04:52:27;;;;;;;7.47;4.33;;;23.70;86.00;;;;;;5071943;28;20239;-70
2023/08/17 04:54:54;;;;;;;5.63;3.43;;;23.70;86.00;;;;;;5071838;28;20228;-71
2023/08/17 04:57:21;;;;;;;7.10;3.67;;;23.70;86.20;;;;;;5070972;28;20262;-71
2023/08/17 04:59:48;;;;;;;8.90;4.47;;;23.70;86.30;;;;;;5071550;28;20216;-71
2023/08/17 05:02:14;;;;;;;9.07;4.07;;;23.80;86.50;;;;;;5071617;28;20231;-71
2023/08/17 05:04:43;;;;;;;3.90;2.97;;;23.80;86.70;;;;;;5071574;28;20288;-71
2023/08/17 05:07:09;;;;;;;4.23;2.93;;;23.80;86.50;;;;;;5071674;28;20237;-71
2023/08/17 05:09:36;;;;;;;4.97;3.57;;;23.90;86.60;;;;;;5071303;28;20229;-70
2023/08/17 05:12:03;;;;;;;4.30;3.20;;;23.90;86.70;;;;;;5071425;28;20201;-71
2023/08/17 05:14:30;;;;;;;3.53;2.77;;;23.90;86.90;;;;;;5071770;28;20232;-71
2023/08/17 05:16:57;;;;;;;3.63;3.33;;;23.90;87.00;;;;;;5071237;28;20212;-71
2023/08/17 05:19:24;;;;;;;3.93;3.53;;;24.00;87.40;;;;;;5071270;28;20664;-71
2023/08/17 05:21:53;;;;;;;4.07;3.30;;;24.00;87.50;;;;;;5071437;28;20574;-71
2023/08/17 05:24:21;;;;;;;4.57;3.37;;;24.00;87.50;;;;;;5071083;28;20262;-71
2023/08/17 05:26:47;;;;;;;4.47;3.50;;;24.10;87.60;;;;;;5088219;28;20612;-71
2023/08/17 05:29:14;;;;;;;4.40;3.77;;;24.10;87.60;;;;;;5073260;28;20231;-71
2023/08/17 05:31:41;;;;;;;5.73;3.70;;;24.10;87.60;;;;;;5071466;28;20201;-71
2023/08/17 05:34:08;;;;;;;5.37;4.20;;;24.10;87.60;;;;;;5071023;28;20204;-71
2023/08/17 05:36:35;;;;;;;3.83;3.53;;;24.10;88.30;;;;;;5089522;28;20222;-71
2023/08/17 05:39:03;;;;;;;3.80;3.37;;;24.20;87.70;;;;;;5078558;28;20771;-71
2023/08/17 05:41:30;;;;;;;6.23;4.00;;;24.20;87.70;;;;;;5075356;28;20220;-71
2023/08/17 05:43:59;;;;;;;6.63;4.33;;;24.20;87.70;;;;;;5090024;28;20231;-71
2023/08/17 05:46:26;;;;;;;6.03;4.23;;;24.20;87.70;;;;;;5095151;28;20243;-70
2023/08/17 05:48:52;;;;;;;5.10;3.57;;;24.30;87.80;;;;;;5094857;28;20223;-71
2023/08/17 05:51:19;;;;;;;5.90;4.10;;;24.30;87.80;;;;;;5095614;28;20240;-71
2023/08/17 05:53:46;;;;;;;4.40;4.00;;;24.30;87.90;;;;;;5094990;28;20208;-71
2023/08/17 05:56:14;;;;;;;5.13;3.73;;;24.30;87.90;;;;;;5095313;28;20227;-71
2023/08/17 05:58:41;;;;;;;5.27;4.77;;;24.40;88.00;;;;;;5081351;28;20201;-71
2023/08/17 06:01:09;;;;;;;4.83;4.43;;;24.40;88.80;;;;;;5090196;28;20536;-71
2023/08/17 06:03:36;;;;;;;4.50;4.07;;;24.40;88.20;;;;;;5095199;28;20228;-70
2023/08/17 06:06:03;;;;;;;4.73;3.80;;;24.40;88.30;;;;;;5095641;28;20260;-71
2023/08/17 06:08:30;;;;;;;4.70;3.60;;;24.50;88.20;;;;;;5091173;28;20235;-70
2023/08/17 06:10:57;;;;;;;4.90;3.97;;;24.50;88.20;;;;;;5079300;28;20208;-71
2023/08/17 06:13:25;;;;;;;5.57;4.93;;;24.50;88.20;;;;;;5075525;28;20212;-71
2023/08/17 06:15:52;;;;;;;4.10;3.70;;;24.60;88.20;;;;;;5083769;28;20231;-71
2023/08/17 06:18:20;;;;;;;5.20;4.27;;;24.60;88.20;;;;;;5094829;28;20208;-70
2023/08/17 06:20:48;;;;;;;5.10;3.47;;;24.60;88.20;;;;;;5083776;28;20234;-70
2023/08/17 06:23:14;;;;;;;3.70;3.40;;;24.70;88.30;;;;;;5075132;28;20220;-70
2023/08/17 06:25:41;;;;;;;5.70;3.40;;;24.70;88.20;;;;;;5074277;28;20212;-70
2023/08/17 06:28:08;;;;;;;4.40;3.20;;;24.80;88.20;;;;;;5074177;28;20229;-70
2023/08/17 06:30:36;;;;;;;4.33;2.83;;;24.80;88.90;;;;;;5074424;28;20579;-71
2023/08/17 06:33:04;;;;;;;3.30;3.00;;;24.80;88.00;;;;;;5085647;28;20234;-70
2023/08/17 06:35:31;;;;;;;3.73;3.17;;;24.80;87.90;;;;;;5077870;28;20259;-71
2023/08/17 06:37:58;;;;;;;3.37;3.07;;;24.90;88.00;;;;;;5094427;28;20566;-71
2023/08/17 06:40:25;;;;;;;3.40;3.10;;;24.90;87.90;;;;;;5094727;28;20228;-71
2023/08/17 06:42:52;;;;;;;3.50;3.20;;;24.90;88.10;;;;;;5088017;28;20227;-71
2023/08/17 06:45:19;;;;;;;5.13;2.90;;;24.90;87.70;;;;;;5075127;28;20322;-71
2023/08/17 06:47:48;;;;;;;3.70;3.37;;;25.00;87.80;;;;;;5091214;28;20220;-71
2023/08/17 06:50:15;;;;;;;7.57;4.10;;;25.00;87.50;;;;;;5089453;28;20200;-71
2023/08/17 06:52:42;;;;;;;5.07;3.17;;;25.00;87.30;;;;;;5080277;28;20579;-70
2023/08/17 06:55:10;;;;;;;5.10;3.00;;;25.00;88.00;;;;;;5088220;28;20200;-71
2023/08/17 06:57:37;;;;;;;3.90;3.43;;;25.10;87.20;;;;;;5094000;28;20216;-72
2023/08/17 07:00:05;;;;;;;4.87;3.50;;;25.10;86.90;;;;;;5094719;28;20394;-71
2023/08/17 07:02:32;;;;;;;4.30;3.27;;;25.20;87.20;;;;;;5094238;28;20236;-71
2023/08/17 07:05:01;;;;;;;3.87;3.40;;;25.20;87.00;;;;;;5093591;28;20232;-71
2023/08/17 07:07:28;;;;;;;3.63;3.10;;;25.20;86.90;;;;;;5093792;28;20217;-71
2023/08/17 07:09:54;;;;;;;4.90;3.80;;;25.30;86.50;;;;;;5095571;28;20224;-71
2023/08/17 07:12:21;;;;;;;4.03;3.63;;;25.30;86.20;;;;;;5096897;28;20208;-71
2023/08/17 07:14:48;;;;;;;3.47;3.17;;;25.40;86.10;;;;;;5094433;28;20200;-71
2023/08/17 07:17:15;;;;;;;4.53;3.20;;;25.40;86.30;;;;;;5095498;28;20221;-72
2023/08/17 07:19:42;;;;;;;3.23;2.70;;;25.40;86.20;;;;;;5087253;28;20539;-72
2023/08/17 07:22:10;;;;;;;3.20;2.87;;;25.40;86.10;;;;;;5074148;28;20239;-71
2023/08/17 07:24:37;;;;;;;4.90;3.03;;;25.50;86.20;;;;;;5073944;28;20205;-71
2023/08/17 07:27:04;;;;;;;4.13;2.90;;;25.50;85.70;;;;;;5072908;28;20204;-71
2023/08/17 07:29:31;;;;;;;4.20;3.13;;;25.50;85.80;;;;;;5073778;28;20210;-71
2023/08/17 07:32:01;;;;;;;4.17;2.90;;;25.50;85.70;;;;;;5073975;28;20205;-71
2023/08/17 07:34:28;;;;;;;3.20;2.90;;;25.60;85.90;;;;;;5073394;28;20209;-71
2023/08/17 07:36:54;;;;;;;3.87;3.00;;;25.60;85.90;;;;;;5073186;28;20599;-71
2023/08/17 07:39:23;;;;;;;3.23;2.93;;;25.60;85.70;;;;;;5073189;28;20229;-70
2023/08/17 07:41:50;;;;;;;3.70;3.20;;;25.70;85.70;;;;;;5073391;28;20567;-70
2023/08/17 07:44:16;;;;;;;7.23;3.63;;;25.70;85.70;;;;;;5073298;28;20312;-71
2023/08/17 07:46:43;;;;;;;4.57;3.73;;;25.80;85.80;;;;;;5072998;28;20195;-70
2023/08/17 07:49:10;;;;;;;4.83;3.57;;;25.80;85.80;;;;;;5072670;28;20233;-71
2023/08/17 07:51:37;;;;;;;3.70;3.30;;;25.90;85.70;;;;;;5072829;28;20717;-71
2023/08/17 07:54:04;;;;;;;4.20;3.20;;;25.90;85.60;;;;;;5072750;28;20223;-71
2023/08/17 07:56:32;;;;;;;4.67;3.27;;;26.00;85.70;;;;;;5072226;28;20742;-71
2023/08/17 07:58:59;;;;;;;5.17;3.30;;;26.00;85.70;;;;;;5072398;28;20204;-71
2023/08/17 08:01:26;;;;;;;6.87;3.90;;;26.00;85.50;;;;;;5072907;28;20217;-71
2023/08/17 08:03:53;;;;;;;5.23;4.37;;;26.10;85.80;;;;;;5072439;28;20691;-71
2023/08/17 08:06:20;;;;;;;5.13;4.27;;;26.10;85.60;;;;;;5072770;28;20211;-71
2023/08/17 08:08:47;;;;;;;6.70;5.00;;;26.10;85.80;;;;;;5072420;28;20237;-71
2023/08/17 08:11:14;;;;;;;4.67;4.17;;;26.10;85.50;;;;;;5072768;28;20292;-71
2023/08/17 08:13:42;;;;;;;7.40;4.43;;;26.20;85.60;;;;;;5072799;28;20314;-71
2023/08/17 08:16:09;;;;;;;6.13;4.87;;;26.20;85.60;;;;;;5072409;28;20638;-71
2023/08/17 08:18:35;;;;;;;5.80;4.50;;;26.20;85.50;;;;;;5072243;28;20224;-70
2023/08/17 08:21:02;;;;;;;5.57;5.07;;;26.20;86.40;;;;;;5072551;28;20232;-72
2023/08/17 08:23:29;;;;;;;5.23;4.43;;;26.30;85.70;;;;;;5072431;28;20216;-71
2023/08/17 08:25:58;;;;;;;6.00;4.80;;;26.30;85.40;;;;;;5072394;28;20239;-70
2023/08/17 08:28:24;;;;;;;5.87;5.20;;;26.30;85.30;;;;;;5072140;28;20224;-70
2023/08/17 08:30:53;;;;;;;5.70;5.20;;;26.40;85.40;;;;;;5072240;28;20296;-70
2023/08/17 08:33:20;;;;;;;5.97;4.87;;;26.40;86.30;;;;;;5071872;28;20197;-72
2023/08/17 08:35:47;;;;;;;5.73;5.23;;;26.40;85.50;;;;;;5072126;28;20207;-71
2023/08/17 08:38:15;;;;;;;5.67;4.57;;;26.50;85.40;;;;;;5071407;28;20724;-71
2023/08/17 08:40:44;;;;;;;5.87;4.87;;;26.50;85.50;;;;;;5072228;28;20267;-71
2023/08/17 08:43:11;;;;;;;6.23;4.83;;;26.50;85.20;;;;;;5080837;28;20232;-72
2023/08/17 08:45:40;;;;;;;7.20;4.67;;;26.60;85.20;;;;;;5092402;28;20208;-71
2023/08/17 08:48:10;;;;;;;5.57;5.03;;;26.70;85.20;;;;;;5091766;28;20204;-71
2023/08/17 08:50:37;;;;;;;5.40;4.90;;;26.70;84.80;;;;;;5092241;28;20274;-71
2023/08/17 08:53:07;;;;;;;5.80;4.80;;;26.70;84.80;;;;;;5092367;28;20285;-71
2023/08/17 08:55:38;;;;;;;5.20;4.70;;;26.80;84.60;;;;;;5091977;28;20244;-71
2023/08/17 08:58:06;;;;;;;4.90;4.47;;;26.80;84.60;;;;;;5091782;28;20189;-71
2023/08/17 09:00:34;;;;;;;6.80;4.80;;;26.90;84.60;;;;;;5091363;28;20268;-71
2023/08/17 09:03:03;;;;;;;5.50;4.90;;;26.90;84.60;;;;;;5092105;28;20227;-72
2023/08/17 09:05:34;;;;;;;5.90;4.53;;;27.00;84.10;;;;;;5091950;28;20204;-71
2023/08/17 09:08:02;;;;;;;6.00;4.80;;;27.00;84.00;;;;;;5091899;28;20300;-71
2023/08/17 09:10:29;;;;;;;8.27;4.80;;;27.10;84.10;;;;;;5091702;28;20232;-71
2023/08/17 09:12:56;;;;;;;5.07;4.67;;;27.20;84.00;;;;;;5091750;28;20236;-71
2023/08/17 09:15:23;;;;;;;5.47;4.90;;;27.20;83.50;;;;;;5091825;28;20208;-73
2023/08/17 09:17:50;;;;;;;4.70;4.00;;;27.30;83.60;;;;;;5091212;28;20232;-70
2023/08/17 09:20:40;;;;;;;4.67;4.27;;;27.40;83.30;;;;;;5091847;28;20190;-70
2023/08/17 09:23:12;;;;;;;4.67;4.27;;;27.40;83.20;;;;;;5091944;28;20193;-71
2023/08/17 09:25:40;;;;;;;5.03;4.40;;;27.60;82.80;;;;;;5091684;28;20206;-72
2023/08/17 09:28:12;;;;;;;4.60;4.20;;;27.70;82.20;;;;;;5091592;28;20212;-71
2023/08/17 09:30:54;;;;;;;5.33;4.50;;;27.70;81.70;;;;;;5091416;28;20230;-71
2023/08/17 09:33:22;;;;;;;4.70;4.30;;;27.80;81.40;;;;;;5091954;28;20228;-71
2023/08/17 09:35:50;;;;;;;4.80;4.40;;;27.80;81.30;;;;;;5091517;28;20285;-71
2023/08/17 09:38:17;;;;;;;4.50;4.10;;;27.90;81.40;;;;;;5091449;28;20201;-73
2023/08/17 09:40:44;;;;;;;5.00;4.50;;;28.00;80.80;;;;;;5091759;28;20505;-71
2023/08/17 09:43:11;;;;;;;5.17;4.47;;;28.00;80.70;;;;;;5082720;28;20710;-72
2023/08/17 09:45:39;;;;;;;4.40;3.93;;;28.10;80.70;;;;;;5070943;28;20220;-72
2023/08/17 09:48:06;;;;;;;4.10;3.70;;;28.10;80.80;;;;;;5071453;28;20231;-71
2023/08/17 09:50:33;;;;;;;4.80;4.40;;;28.20;80.80;;;;;;5071219;28;20226;-72
2023/08/17 09:53:03;;;;;;;4.10;3.63;;;28.20;80.80;;;;;;5070894;28;20700;-71
2023/08/17 09:55:33;;;;;;;3.87;3.47;;;28.30;80.40;;;;;;5071246;28;20482;-71
2023/08/17 09:58:00;;;;;;;4.10;3.70;;;28.40;80.10;;;;;;5071332;28;20203;-71
2023/08/17 10:00:29;;;;;;;3.93;3.53;;;28.40;80.10;;;;;;5070783;28;20219;-71
2023/08/17 10:02:58;;;;;;;4.13;3.83;;;28.50;79.80;;;;;;5071452;28;20573;-71
2023/08/17 10:05:26;;;;;;;4.50;4.10;;;28.50;79.60;;;;;;5071129;28;20234;-72
2023/08/17 10:07:55;;;;;;;4.23;3.83;;;28.60;79.20;;;;;;5071049;28;20692;-72
2023/08/17 10:10:27;;;;;;;4.03;3.70;;;28.60;78.80;;;;;;5070990;28;20240;-72
2023/08/17 10:13:03;;;;;;;4.20;3.80;;;28.70;79.10;;;;;;5071173;28;20195;-72
2023/08/17 10:15:33;;;;;;;4.27;3.93;;;28.90;79.70;;;;;;5071292;28;20235;-72
2023/08/17 10:18:10;;;;;;;4.83;4.20;;;29.00;78.80;;;;;;5070949;28;20201;-71
2023/08/17 10:20:40;;;;;;;4.13;3.60;;;29.20;78.10;;;;;;5071255;28;20200;-71
2023/08/17 10:23:15;;;;;;;5.73;4.50;;;29.30;78.60;;;;;;5074587;28;20236;-72
2023/08/17 10:25:44;;;;;;;4.77;4.37;;;29.40;77.80;;;;;;5074734;28;20193;-73
2023/08/17 10:28:11;;;;;;;4.57;4.20;;;29.50;78.30;;;;;;5074368;28;20263;-71
2023/08/17 10:30:39;;;;;;;4.87;4.27;;;29.70;77.50;;;;;;5074620;28;20247;-70
2023/08/17 10:33:06;;;;;;;4.17;3.87;;;29.80;76.80;;;;;;5074538;28;20679;-72
2023/08/17 10:35:35;;;;;;;5.83;4.33;;;30.00;77.20;;;;;;5074590;28;20797;-71
2023/08/17 10:38:04;;;;;;;6.23;4.57;;;30.10;75.90;;;;;;5074828;28;20216;-71
2023/08/17 10:40:36;;;;;;;4.60;4.20;;;30.20;75.00;;;;;;5074593;28;20261;-71
2023/08/17 10:43:05;;;;;;;4.97;4.57;;;30.40;75.40;;;;;;5098089;28;20254;-71
2023/08/17 10:45:34;;;;;;;5.03;4.63;;;30.60;75.50;;;;;;5115501;28;20200;-76
2023/08/17 10:48:16;;;;;;;5.17;4.67;;;30.70;74.70;;;;;;5094626;28;20185;-70
2023/08/17 10:51:00;;;;;;;4.97;4.43;;;30.80;73.80;;;;;;5094427;28;20227;-71
2023/08/17 10:53:27;;;;;;;4.77;4.37;;;30.90;72.50;;;;;;5093049;28;20200;-71
2023/08/17 10:55:58;;;;;;;5.47;4.57;;;31.00;73.00;;;;;;5094379;28;20248;-71
2023/08/17 10:58:26;;;;;;;5.10;4.70;;;31.10;72.60;;;;;;5093654;28;20691;-71
2023/08/17 11:00:56;;;;;;;4.83;4.40;;;31.20;72.50;;;;;;5094763;28;20205;-72
2023/08/17 11:03:24;;;;;;;5.47;4.97;;;31.30;71.40;;;;;;5094232;28;20594;-71
2023/08/17 11:05:53;;;;;;;5.50;4.70;;;31.40;72.10;;;;;;5094166;28;20213;-72
2023/08/17 11:08:28;;;;;;;5.17;4.57;;;31.60;71.10;;;;;;5093222;28;20680;-72
2023/08/17 11:11:00;;;;;;;5.30;4.40;;;31.70;70.30;;;;;;5094121;28;20572;-71
2023/08/17 11:13:31;;;;;;;5.07;4.57;;;31.90;69.50;;;;;;5094148;28;20626;-71
2023/08/17 11:15:59;;;;;;;5.30;4.87;;;31.90;68.60;;;;;;5094326;28;20229;-71
2023/08/17 11:18:26;;;;;;;5.23;4.83;;;31.90;69.10;;;;;;5093664;28;20208;-70
2023/08/17 11:20:54;;;;;;;5.80;4.70;;;31.80;68.60;;;;;;5094342;28;20587;-71
2023/08/17 11:23:21;;;;;;;5.30;4.80;;;31.80;68.50;;;;;;5093882;28;20239;-71
2023/08/17 11:25:50;;;;;;;5.40;4.90;;;31.80;68.70;;;;;;5094008;28;20235;-70
2023/08/17 11:28:17;;;;;;;5.03;4.63;;;31.80;68.20;;;;;;5093602;28;20741;-73
2023/08/17 11:30:45;;;;;;;5.63;5.23;;;31.70;68.30;;;;;;5093993;28;20586;-71
2023/08/17 11:33:13;;;;;;;6.30;5.80;;;31.80;68.20;;;;;;5092496;28;20236;-70
2023/08/17 11:35:40;;;;;;;8.73;7.83;;;31.80;68.30;;;;;;5093573;28;20737;-72
2023/08/17 11:38:08;;;;;;;8.87;8.07;;;31.70;68.90;;;;;;5096299;28;20216;-71
2023/08/17 11:40:35;;;;;;;11.13;9.00;;;31.50;69.20;;;;;;5102256;28;20231;-71
2023/08/17 11:43:02;;;;;;;9.83;8.83;;;31.20;68.60;;;;;;5093743;28;20718;-70
2023/08/17 11:45:29;;;;;;;10.47;8.37;;;30.80;69.60;;;;;;5093577;28;20655;-71
2023/08/17 11:47:57;;;;;;;9.97;9.07;;;30.50;70.10;;;;;;5093505;28;20208;-70
2023/08/17 11:50:26;;;;;;;8.93;8.13;;;30.20;71.00;;;;;;5093475;28;20238;-70
2023/08/17 11:52:53;;;;;;;9.80;8.97;;;30.10;71.70;;;;;;5093514;28;20204;-71
2023/08/17 11:55:20;;;;;;;9.20;8.30;;;30.20;72.60;;;;;;5092670;28;20203;-71
2023/08/17 11:57:47;;;;;;;8.03;7.33;;;30.10;71.70;;;;;;5092821;28;20250;-71
2023/08/17 12:00:20;;;;;;;8.80;7.90;;;29.90;72.20;;;;;;5093306;28;20199;-71
2023/08/17 12:02:51;;;;;;;8.10;7.30;;;29.80;72.60;;;;;;5092888;28;20243;-70
2023/08/17 12:05:23;;;;;;;8.37;7.57;;;29.80;72.90;;;;;;5092876;28;20686;-71
2023/08/17 12:07:50;;;;;;;7.93;7.23;;;29.70;73.00;;;;;;5092730;28;20240;-71
2023/08/17 12:10:19;;;;;;;8.43;7.63;;;29.80;73.20;;;;;;5092622;28;20695;-72
2023/08/17 12:12:47;;;;;;;8.17;7.47;;;29.90;73.90;;;;;;5093214;28;20236;-72
2023/08/17 12:15:14;;;;;;;9.13;8.23;;;29.90;73.20;;;;;;5093206;28;20322;-72
2023/08/17 12:17:46;;;;;;;9.67;8.77;;;30.10;73.40;;;;;;5093061;28;20204;-72
2023/08/17 12:20:17;;;;;;;9.63;8.60;;;30.10;72.60;;;;;;5092778;28;20227;-70
2023/08/17 12:22:46;;;;;;;8.97;8.13;;;30.00;72.00;;;;;;5092875;28;20204;-72
2023/08/17 12:25:13;;;;;;;8.87;8.07;;;30.10;72.20;;;;;;5092117;28;20204;-72
2023/08/17 12:27:40;;;;;;;8.10;7.40;;;30.20;72.00;;;;;;5092850;28;20195;-72
2023/08/17 12:30:14;;;;;;;8.03;7.23;;;30.40;72.30;;;;;;5092492;28;20451;-69
2023/08/17 12:32:40;;;;;;;7.27;6.57;;;30.40;72.10;;;;;;5092362;28;20232;-71
2023/08/17 12:35:08;;;;;;;8.53;7.43;;;30.60;72.10;;;;;;5092538;28;20204;-71
2023/08/17 12:37:35;;;;;;;9.00;7.80;;;30.80;71.60;;;;;;5092247;28;20234;-71
2023/08/17 12:40:05;;;;;;;8.23;7.53;;;30.90;70.50;;;;;;5092418;28;20242;-71
2023/08/17 12:42:31;;;;;;;8.90;7.97;;;31.10;70.20;;;;;;5089160;28;20236;-70
2023/08/17 12:44:58;;;;;;;8.57;7.77;;;31.20;70.50;;;;;;5071843;28;20205;-71
2023/08/17 12:47:25;;;;;;;8.40;7.60;;;31.30;70.00;;;;;;5071940;28;20224;-72
2023/08/17 12:49:52;;;;;;;8.10;7.37;;;31.40;69.30;;;;;;5071845;28;20268;-71
2023/08/17 12:52:19;;;;;;;8.13;7.33;;;31.60;69.40;;;;;;5072270;28;20293;-73